createdAt,value
2016-12-10T00:00:10.497Z,1021.68
2016-12-10T00:00:51.256Z,1021.73
2016-12-10T00:01:32.528Z,1021.72
2016-12-10T00:02:13.299Z,1021.72
2016-12-10T00:02:54.082Z,1021.68
2016-12-10T00:03:34.855Z,1021.7
2016-12-10T00:04:15.593Z,1021.7
2016-12-10T00:04:56.339Z,1021.64
2016-12-10T00:05:37.126Z,1021.67
2016-12-10T00:06:17.896Z,1021.66
2016-12-10T00:06:58.634Z,1021.64
2016-12-10T00:07:39.406Z,1021.64
2016-12-10T00:08:20.172Z,1021.61
2016-12-10T00:09:00.953Z,1021.62
2016-12-10T00:09:41.713Z,1021.6
2016-12-10T00:10:22.476Z,1021.59
2016-12-10T00:11:03.228Z,1021.59
2016-12-10T00:11:43.999Z,1021.55
2016-12-10T00:12:24.772Z,1021.55
2016-12-10T00:13:05.556Z,1021.54
2016-12-10T00:13:46.309Z,1021.55
2016-12-10T00:14:27.063Z,1021.53
2016-12-10T00:15:07.829Z,1021.53
2016-12-10T00:15:48.589Z,1021.53
2016-12-10T00:16:29.362Z,1021.52
2016-12-10T00:17:10.121Z,1021.52
2016-12-10T00:17:50.867Z,1021.5
2016-12-10T00:18:31.630Z,1021.45
2016-12-10T00:19:12.396Z,1021.46
2016-12-10T00:19:53.201Z,1021.47
2016-12-10T00:20:33.958Z,1021.45
2016-12-10T00:21:14.691Z,1021.45
2016-12-10T00:21:55.470Z,1021.48
2016-12-10T00:22:36.220Z,1021.44
2016-12-10T00:23:16.981Z,1021.48
2016-12-10T00:23:57.737Z,1021.45
2016-12-10T00:24:38.489Z,1021.44
2016-12-10T00:25:19.345Z,1021.46
2016-12-10T00:26:00.090Z,1021.43
2016-12-10T00:26:40.869Z,1021.42
2016-12-10T00:27:21.617Z,1021.43
2016-12-10T00:28:02.374Z,1021.43
2016-12-10T00:28:43.155Z,1021.43
2016-12-10T00:29:23.910Z,1021.43
2016-12-10T00:30:04.692Z,1021.45
2016-12-10T00:30:45.439Z,1021.43
2016-12-10T00:31:26.207Z,1021.41
2016-12-10T00:32:06.984Z,1021.4
2016-12-10T00:32:47.752Z,1021.41
2016-12-10T00:33:28.520Z,1021.39
2016-12-10T00:34:09.268Z,1021.38
2016-12-10T00:34:50.046Z,1021.34
2016-12-10T00:35:30.808Z,1021.41
2016-12-10T00:36:11.560Z,1021.45
2016-12-10T00:36:52.313Z,1021.42
2016-12-10T00:37:33.098Z,1021.39
2016-12-10T00:38:13.815Z,1021.39
2016-12-10T00:38:54.571Z,1021.4
2016-12-10T00:39:35.352Z,1021.4
2016-12-10T00:40:16.119Z,1021.36
2016-12-10T00:40:56.868Z,1021.37
2016-12-10T00:41:37.630Z,1021.36
2016-12-10T00:42:18.386Z,1021.4
2016-12-10T00:42:59.164Z,1021.38
2016-12-10T00:43:39.950Z,1021.36
2016-12-10T00:44:20.728Z,1021.38
2016-12-10T00:45:01.479Z,1021.36
2016-12-10T00:45:42.237Z,1021.36
2016-12-10T00:46:22.995Z,1021.39
2016-12-10T00:47:03.792Z,1021.4
2016-12-10T00:47:44.555Z,1021.33
2016-12-10T00:48:25.319Z,1021.37
2016-12-10T00:49:06.081Z,1021.37
2016-12-10T00:49:46.847Z,1021.37
2016-12-10T00:50:27.632Z,1021.35
2016-12-10T00:51:08.412Z,1021.35
2016-12-10T00:51:49.172Z,1021.36
2016-12-10T00:52:29.933Z,1021.36
2016-12-10T00:53:10.714Z,1021.38
2016-12-10T00:53:51.475Z,1021.35
2016-12-10T00:54:32.236Z,1021.35
2016-12-10T00:55:13.004Z,1021.36
2016-12-10T00:55:53.744Z,1021.33
2016-12-10T00:56:34.516Z,1021.33
2016-12-10T00:57:15.259Z,1021.34
2016-12-10T00:57:56.022Z,1021.33
2016-12-10T00:58:36.769Z,1021.28
2016-12-10T00:59:17.524Z,1021.31
2016-12-10T00:59:58.294Z,1021.33
2016-12-10T01:00:39.060Z,1021.33
2016-12-10T01:01:19.812Z,1021.28
2016-12-10T01:02:00.577Z,1021.34
2016-12-10T01:02:41.350Z,1021.29
2016-12-10T01:03:22.129Z,1021.29
2016-12-10T01:04:02.876Z,1021.3
2016-12-10T01:04:43.639Z,1021.3
2016-12-10T01:05:24.412Z,1021.33
2016-12-10T01:06:05.163Z,1021.29
2016-12-10T01:06:45.943Z,1021.28
2016-12-10T01:07:26.704Z,1021.3
2016-12-10T01:08:07.452Z,1021.28
2016-12-10T01:08:48.208Z,1021.28
2016-12-10T01:09:28.967Z,1021.28
2016-12-10T01:10:09.725Z,1021.28
2016-12-10T01:10:50.485Z,1021.28
2016-12-10T01:11:31.265Z,1021.22
2016-12-10T01:12:12.002Z,1021.27
2016-12-10T01:12:52.777Z,1021.28
2016-12-10T01:13:33.573Z,1021.28
2016-12-10T01:14:14.311Z,1021.25
2016-12-10T01:14:55.081Z,1021.25
2016-12-10T01:15:35.840Z,1021.24
2016-12-10T01:16:16.591Z,1021.2
2016-12-10T01:16:57.361Z,1021.2
2016-12-10T01:17:38.105Z,1021.23
2016-12-10T01:18:18.871Z,1021.2
2016-12-10T01:18:59.621Z,1021.18
2016-12-10T01:19:40.386Z,1021.21
2016-12-10T01:20:21.146Z,1021.2
2016-12-10T01:21:01.917Z,1021.2
2016-12-10T01:21:42.668Z,1021.2
2016-12-10T01:22:23.418Z,1021.2
2016-12-10T01:23:04.190Z,1021.19
2016-12-10T01:23:44.959Z,1021.16
2016-12-10T01:24:25.708Z,1021.16
2016-12-10T01:25:06.452Z,1021.18
2016-12-10T01:25:47.225Z,1021.16
2016-12-10T01:26:27.992Z,1021.15
2016-12-10T01:27:08.765Z,1021.19
2016-12-10T01:27:49.539Z,1021.15
2016-12-10T01:28:30.297Z,1021.16
2016-12-10T01:29:11.058Z,1021.14
2016-12-10T01:29:51.819Z,1021.16
2016-12-10T01:30:32.590Z,1021.15
2016-12-10T01:31:13.351Z,1021.12
2016-12-10T01:31:54.111Z,1021.14
2016-12-10T01:32:34.875Z,1021.18
2016-12-10T01:33:15.634Z,1021.13
2016-12-10T01:33:56.379Z,1021.13
2016-12-10T01:34:37.124Z,1021.12
2016-12-10T01:35:17.894Z,1021.13
2016-12-10T01:35:58.661Z,1021.1
2016-12-10T01:36:39.407Z,1021.09
2016-12-10T01:37:20.203Z,1021.12
2016-12-10T01:38:00.961Z,1021.06
2016-12-10T01:38:41.716Z,1021.06
2016-12-10T01:39:22.473Z,1021.07
2016-12-10T01:40:03.237Z,1021.09
2016-12-10T01:40:43.988Z,1021.07
2016-12-10T01:41:24.752Z,1021.06
2016-12-10T01:42:05.512Z,1021.08
2016-12-10T01:42:46.258Z,1021.1
2016-12-10T01:43:27.058Z,1021.06
2016-12-10T01:44:07.821Z,1021.07
2016-12-10T01:44:48.573Z,1021.08
2016-12-10T01:45:29.338Z,1021.12
2016-12-10T01:46:10.109Z,1021.11
2016-12-10T01:46:50.879Z,1021.13
2016-12-10T01:47:31.637Z,1021.12
2016-12-10T01:48:12.397Z,1021.09
2016-12-10T01:48:53.150Z,1021.08
2016-12-10T01:49:33.935Z,1021.12
2016-12-10T01:50:14.693Z,1021.09
2016-12-10T01:50:55.453Z,1021.11
2016-12-10T01:51:36.227Z,1021.1
2016-12-10T01:52:16.976Z,1021.13
2016-12-10T01:52:57.748Z,1021.12
2016-12-10T01:53:38.499Z,1021.14
2016-12-10T01:54:19.262Z,1021.09
2016-12-10T01:55:00.056Z,1021.11
2016-12-10T01:55:40.792Z,1021.11
2016-12-10T01:56:21.566Z,1021.12
2016-12-10T01:57:02.322Z,1021.12
2016-12-10T01:57:43.085Z,1021.12
2016-12-10T01:58:23.848Z,1021.15
2016-12-10T01:59:04.633Z,1021.12
2016-12-10T01:59:45.355Z,1021.16
2016-12-10T02:00:26.106Z,1021.14
2016-12-10T02:01:06.871Z,1021.12
2016-12-10T02:01:47.645Z,1021.12
2016-12-10T02:02:28.394Z,1021.2
2016-12-10T02:03:09.144Z,1021.17
2016-12-10T02:03:49.910Z,1021.19
2016-12-10T02:04:30.673Z,1021.2
2016-12-10T02:05:11.499Z,1021.16
2016-12-10T02:05:52.250Z,1021.16
2016-12-10T02:06:33.034Z,1021.21
2016-12-10T02:07:13.790Z,1021.17
2016-12-10T02:07:54.531Z,1021.17
2016-12-10T02:08:35.274Z,1021.15
2016-12-10T02:09:16.027Z,1021.17
2016-12-10T02:09:56.779Z,1021.16
2016-12-10T02:10:37.542Z,1021.14
2016-12-10T02:11:18.298Z,1021.17
2016-12-10T02:11:59.053Z,1021.15
2016-12-10T02:12:39.808Z,1021.15
2016-12-10T02:13:20.567Z,1021.15
2016-12-10T02:14:01.342Z,1021.14
2016-12-10T02:14:42.096Z,1021.15
2016-12-10T02:15:22.867Z,1021.13
2016-12-10T02:16:03.647Z,1021.11
2016-12-10T02:16:44.396Z,1021.09
2016-12-10T02:17:25.184Z,1021.11
2016-12-10T02:18:05.939Z,1021.11
2016-12-10T02:18:46.682Z,1021.12
2016-12-10T02:19:27.418Z,1021.09
2016-12-10T02:20:08.193Z,1021.07
2016-12-10T02:20:48.949Z,1021.1
2016-12-10T02:21:29.700Z,1021.08
2016-12-10T02:22:10.452Z,1021.05
2016-12-10T02:22:51.209Z,1021.07
2016-12-10T02:23:31.984Z,1021.04
2016-12-10T02:24:12.739Z,1021.09
2016-12-10T02:24:53.510Z,1021.03
2016-12-10T02:25:34.286Z,1021.06
2016-12-10T02:26:15.055Z,1021.08
2016-12-10T02:26:55.816Z,1021.05
2016-12-10T02:27:36.576Z,1021.08
2016-12-10T02:28:17.328Z,1021.06
2016-12-10T02:28:58.088Z,1021.08
2016-12-10T02:29:38.884Z,1021.09
2016-12-10T02:30:19.648Z,1021.09
2016-12-10T02:31:00.409Z,1021.1
2016-12-10T02:31:41.183Z,1021.09
2016-12-10T02:32:21.923Z,1021.08
2016-12-10T02:33:02.690Z,1021.08
2016-12-10T02:33:43.461Z,1021.05
2016-12-10T02:34:24.226Z,1021.05
2016-12-10T02:35:04.982Z,1021.06
2016-12-10T02:35:45.721Z,1021.07
2016-12-10T02:36:26.515Z,1021.02
2016-12-10T02:37:07.256Z,1021.02
2016-12-10T02:37:48.022Z,1021.02
2016-12-10T02:38:28.781Z,1021.04
2016-12-10T02:39:09.520Z,1020.99
2016-12-10T02:39:50.281Z,1021.02
2016-12-10T02:40:31.054Z,1020.98
2016-12-10T02:41:11.797Z,1020.96
2016-12-10T02:41:52.575Z,1020.95
2016-12-10T02:42:33.324Z,1020.92
2016-12-10T02:43:14.110Z,1020.92
2016-12-10T02:43:54.909Z,1020.9
2016-12-10T02:44:35.678Z,1020.89
2016-12-10T02:45:16.422Z,1020.89
2016-12-10T02:45:57.236Z,1020.87
2016-12-10T02:46:38.012Z,1020.84
2016-12-10T02:47:18.758Z,1020.85
2016-12-10T02:47:59.537Z,1020.84
2016-12-10T02:48:40.292Z,1020.84
2016-12-10T02:49:21.021Z,1020.81
2016-12-10T02:50:01.813Z,1020.81
2016-12-10T02:50:42.584Z,1020.81
2016-12-10T02:51:23.355Z,1020.82
2016-12-10T02:52:04.097Z,1020.81
2016-12-10T02:52:44.875Z,1020.82
2016-12-10T02:53:25.629Z,1020.8
2016-12-10T02:54:06.404Z,1020.79
2016-12-10T02:54:47.183Z,1020.8
2016-12-10T02:55:27.963Z,1020.75
2016-12-10T02:56:08.724Z,1020.74
2016-12-10T02:56:49.494Z,1020.76
2016-12-10T02:57:30.281Z,1020.75
2016-12-10T02:58:11.031Z,1020.75
2016-12-10T02:58:51.826Z,1020.72
2016-12-10T02:59:32.557Z,1020.73
2016-12-10T03:00:13.314Z,1020.71
2016-12-10T03:00:54.095Z,1020.7
2016-12-10T03:01:34.859Z,1020.72
2016-12-10T03:02:15.610Z,1020.72
2016-12-10T03:02:56.375Z,1020.7
2016-12-10T03:03:37.138Z,1020.69
2016-12-10T03:04:17.908Z,1020.68
2016-12-10T03:04:58.710Z,1020.7
2016-12-10T03:05:40.057Z,1020.67
2016-12-10T03:06:20.222Z,1020.69
2016-12-10T03:07:00.982Z,1020.69
2016-12-10T03:07:41.750Z,1020.68
2016-12-10T03:08:22.508Z,1020.67
2016-12-10T03:09:03.270Z,1020.64
2016-12-10T03:09:44.039Z,1020.66
2016-12-10T03:10:24.764Z,1020.63
2016-12-10T03:11:05.532Z,1020.63
2016-12-10T03:11:46.265Z,1020.63
2016-12-10T03:12:27.057Z,1020.62
2016-12-10T03:13:07.812Z,1020.65
2016-12-10T03:13:48.578Z,1020.62
2016-12-10T03:14:29.336Z,1020.62
2016-12-10T03:15:10.105Z,1020.61
2016-12-10T03:15:50.856Z,1020.59
2016-12-10T03:16:31.646Z,1020.58
2016-12-10T03:17:12.430Z,1020.58
2016-12-10T03:17:53.188Z,1020.58
2016-12-10T03:18:33.938Z,1020.55
2016-12-10T03:19:14.685Z,1020.57
2016-12-10T03:19:55.432Z,1020.57
2016-12-10T03:20:36.194Z,1020.58
2016-12-10T03:21:16.971Z,1020.58
2016-12-10T03:21:57.734Z,1020.58
2016-12-10T03:22:38.518Z,1020.58
2016-12-10T03:23:19.279Z,1020.57
2016-12-10T03:24:00.038Z,1020.56
2016-12-10T03:24:40.815Z,1020.52
2016-12-10T03:25:21.577Z,1020.48
2016-12-10T03:26:02.336Z,1020.52
2016-12-10T03:26:43.110Z,1020.55
2016-12-10T03:27:23.876Z,1020.54
2016-12-10T03:28:04.656Z,1020.5
2016-12-10T03:28:45.427Z,1020.48
2016-12-10T03:29:26.185Z,1020.5
2016-12-10T03:30:06.947Z,1020.49
2016-12-10T03:30:47.705Z,1020.53
2016-12-10T03:31:28.466Z,1020.52
2016-12-10T03:32:09.222Z,1020.51
2016-12-10T03:32:49.971Z,1020.51
2016-12-10T03:33:30.754Z,1020.51
2016-12-10T03:34:11.524Z,1020.51
2016-12-10T03:34:52.295Z,1020.5
2016-12-10T03:35:33.059Z,1020.49
2016-12-10T03:36:13.818Z,1020.53
2016-12-10T03:36:54.575Z,1020.5
2016-12-10T03:37:35.360Z,1020.52
2016-12-10T03:38:16.143Z,1020.48
2016-12-10T03:38:56.891Z,1020.54
2016-12-10T03:39:37.643Z,1020.5
2016-12-10T03:40:18.431Z,1020.5
2016-12-10T03:40:59.215Z,1020.49
2016-12-10T03:41:39.969Z,1020.48
2016-12-10T03:42:20.750Z,1020.48
2016-12-10T03:43:01.482Z,1020.5
2016-12-10T03:43:42.233Z,1020.51
2016-12-10T03:44:23.018Z,1020.51
2016-12-10T03:45:03.782Z,1020.52
2016-12-10T03:45:44.520Z,1020.51
2016-12-10T03:46:25.282Z,1020.5
2016-12-10T03:47:06.054Z,1020.54
2016-12-10T03:47:46.805Z,1020.54
2016-12-10T03:48:27.593Z,1020.54
2016-12-10T03:49:08.375Z,1020.53
2016-12-10T03:49:49.117Z,1020.52
2016-12-10T03:50:29.908Z,1020.51
2016-12-10T03:51:10.666Z,1020.54
2016-12-10T03:51:51.404Z,1020.49
2016-12-10T03:52:32.169Z,1020.5
2016-12-10T03:53:12.933Z,1020.51
2016-12-10T03:53:53.692Z,1020.53
2016-12-10T03:54:34.477Z,1020.51
2016-12-10T03:55:15.225Z,1020.51
2016-12-10T03:55:55.956Z,1020.51
2016-12-10T03:56:36.742Z,1020.5
2016-12-10T03:57:17.505Z,1020.49
2016-12-10T03:57:58.265Z,1020.48
2016-12-10T03:58:39.048Z,1020.53
2016-12-10T03:59:19.797Z,1020.51
2016-12-10T04:00:00.548Z,1020.53
2016-12-10T04:00:41.325Z,1020.5
2016-12-10T04:01:22.094Z,1020.46
2016-12-10T04:02:02.872Z,1020.5
2016-12-10T04:02:43.621Z,1020.5
2016-12-10T04:03:25.087Z,1020.48
2016-12-10T04:04:05.153Z,1020.48
2016-12-10T04:04:45.924Z,1020.52
2016-12-10T04:05:26.730Z,1020.47
2016-12-10T04:06:07.498Z,1020.46
2016-12-10T04:06:48.263Z,1020.49
2016-12-10T04:07:29.051Z,1020.46
2016-12-10T04:08:09.805Z,1020.46
2016-12-10T04:08:50.564Z,1020.47
2016-12-10T04:09:31.322Z,1020.46
2016-12-10T04:10:12.105Z,1020.46
2016-12-10T04:10:52.869Z,1020.41
2016-12-10T04:11:33.602Z,1020.43
2016-12-10T04:12:14.367Z,1020.42
2016-12-10T04:12:55.152Z,1020.44
2016-12-10T04:13:35.909Z,1020.41
2016-12-10T04:14:16.673Z,1020.42
2016-12-10T04:14:57.440Z,1020.47
2016-12-10T04:15:38.177Z,1020.39
2016-12-10T04:16:18.929Z,1020.43
2016-12-10T04:16:59.737Z,1020.41
2016-12-10T04:17:40.506Z,1020.4
2016-12-10T04:18:21.251Z,1020.38
2016-12-10T04:19:02.000Z,1020.38
2016-12-10T04:19:42.776Z,1020.39
2016-12-10T04:20:23.535Z,1020.47
2016-12-10T04:21:04.318Z,1020.39
2016-12-10T04:21:45.110Z,1020.39
2016-12-10T04:22:25.865Z,1020.35
2016-12-10T04:23:06.629Z,1020.37
2016-12-10T04:23:47.395Z,1020.38
2016-12-10T04:24:28.167Z,1020.35
2016-12-10T04:25:08.913Z,1020.32
2016-12-10T04:25:49.689Z,1020.31
2016-12-10T04:26:30.457Z,1020.32
2016-12-10T04:27:11.242Z,1020.34
2016-12-10T04:27:51.990Z,1020.3
2016-12-10T04:28:32.771Z,1020.3
2016-12-10T04:29:13.533Z,1020.29
2016-12-10T04:29:54.340Z,1020.31
2016-12-10T04:30:35.084Z,1020.28
2016-12-10T04:31:15.834Z,1020.25
2016-12-10T04:31:56.594Z,1020.3
2016-12-10T04:32:37.359Z,1020.3
2016-12-10T04:33:18.153Z,1020.28
2016-12-10T04:33:58.930Z,1020.29
2016-12-10T04:34:39.683Z,1020.26
2016-12-10T04:35:20.414Z,1020.26
2016-12-10T04:36:01.173Z,1020.27
2016-12-10T04:36:41.921Z,1020.27
2016-12-10T04:37:22.694Z,1020.25
2016-12-10T04:38:03.450Z,1020.24
2016-12-10T04:38:44.217Z,1020.25
2016-12-10T04:39:24.969Z,1020.25
2016-12-10T04:40:05.736Z,1020.25
2016-12-10T04:40:46.510Z,1020.26
2016-12-10T04:41:27.259Z,1020.26
2016-12-10T04:42:08.021Z,1020.23
2016-12-10T04:42:48.797Z,1020.29
2016-12-10T04:43:29.565Z,1020.24
2016-12-10T04:44:10.315Z,1020.29
2016-12-10T04:44:51.089Z,1020.26
2016-12-10T04:45:31.831Z,1020.28
2016-12-10T04:46:12.617Z,1020.26
2016-12-10T04:46:53.368Z,1020.26
2016-12-10T04:47:34.174Z,1020.22
2016-12-10T04:48:14.913Z,1020.21
2016-12-10T04:48:55.682Z,1020.26
2016-12-10T04:49:36.438Z,1020.24
2016-12-10T04:50:17.208Z,1020.25
2016-12-10T04:50:57.969Z,1020.24
2016-12-10T04:51:38.703Z,1020.24
2016-12-10T04:52:19.463Z,1020.22
2016-12-10T04:53:00.214Z,1020.24
2016-12-10T04:53:40.967Z,1020.23
2016-12-10T04:54:21.730Z,1020.2
2016-12-10T04:55:02.485Z,1020.2
2016-12-10T04:55:43.230Z,1020.2
2016-12-10T04:56:24.006Z,1020.18
2016-12-10T04:57:04.766Z,1020.21
2016-12-10T04:57:45.513Z,1020.23
2016-12-10T04:58:26.276Z,1020.21
2016-12-10T04:59:07.017Z,1020.21
2016-12-10T04:59:47.791Z,1020.17
2016-12-10T05:00:28.542Z,1020.21
2016-12-10T05:01:09.288Z,1020.18
2016-12-10T05:01:50.038Z,1020.17
2016-12-10T05:02:30.806Z,1020.22
2016-12-10T05:03:11.553Z,1020.19
2016-12-10T05:03:52.321Z,1020.18
2016-12-10T05:04:33.048Z,1020.16
2016-12-10T05:05:13.821Z,1020.18
2016-12-10T05:05:54.565Z,1020.17
2016-12-10T05:06:35.359Z,1020.15
2016-12-10T05:07:16.122Z,1020.18
2016-12-10T05:07:56.850Z,1020.18
2016-12-10T05:08:37.614Z,1020.17
2016-12-10T05:09:18.377Z,1020.13
2016-12-10T05:09:59.144Z,1020.16
2016-12-10T05:10:39.946Z,1020.12
2016-12-10T05:11:20.697Z,1020.13
2016-12-10T05:12:01.468Z,1020.12
2016-12-10T05:12:42.232Z,1020.14
2016-12-10T05:13:23.001Z,1020.16
2016-12-10T05:14:03.768Z,1020.11
2016-12-10T05:14:44.537Z,1020.14
2016-12-10T05:15:25.300Z,1020.1
2016-12-10T05:16:06.050Z,1020.09
2016-12-10T05:16:46.825Z,1020.1
2016-12-10T05:17:27.582Z,1020.15
2016-12-10T05:18:08.347Z,1020.13
2016-12-10T05:18:49.098Z,1020.13
2016-12-10T05:19:29.909Z,1020.12
2016-12-10T05:20:10.652Z,1020.08
2016-12-10T05:20:51.436Z,1020.1
2016-12-10T05:21:32.211Z,1020.09
2016-12-10T05:22:12.957Z,1020.06
2016-12-10T05:22:53.714Z,1020.07
2016-12-10T05:23:34.477Z,1020.09
2016-12-10T05:24:15.242Z,1020.06
2016-12-10T05:24:55.999Z,1020.08
2016-12-10T05:25:36.755Z,1020.09
2016-12-10T05:26:17.491Z,1020.09
2016-12-10T05:26:58.263Z,1020.09
2016-12-10T05:27:39.011Z,1020.06
2016-12-10T05:28:19.773Z,1020.04
2016-12-10T05:29:00.518Z,1020.03
2016-12-10T05:29:41.262Z,1020.03
2016-12-10T05:30:22.034Z,1020.08
2016-12-10T05:31:02.802Z,1020.08
2016-12-10T05:31:43.570Z,1020.02
2016-12-10T05:32:24.360Z,1020.07
2016-12-10T05:33:05.113Z,1020.04
2016-12-10T05:33:45.890Z,1020.05
2016-12-10T05:34:26.680Z,1020.07
2016-12-10T05:35:07.416Z,1020.06
2016-12-10T05:35:48.177Z,1020.02
2016-12-10T05:36:28.930Z,1020.08
2016-12-10T05:37:09.692Z,1020.05
2016-12-10T05:37:50.465Z,1020.05
2016-12-10T05:38:31.209Z,1020.06
2016-12-10T05:39:11.980Z,1020.07
2016-12-10T05:39:52.753Z,1020.06
2016-12-10T05:40:33.502Z,1020.06
2016-12-10T05:41:14.258Z,1020.04
2016-12-10T05:41:55.024Z,1020.06
2016-12-10T05:42:35.809Z,1020.06
2016-12-10T05:43:16.554Z,1020.07
2016-12-10T05:43:57.311Z,1020.05
2016-12-10T05:44:38.062Z,1020.06
2016-12-10T05:45:18.810Z,1020.04
2016-12-10T05:45:59.576Z,1020.08
2016-12-10T05:46:40.370Z,1020.07
2016-12-10T05:47:21.129Z,1020.08
2016-12-10T05:48:01.870Z,1020.05
2016-12-10T05:48:42.641Z,1020.03
2016-12-10T05:49:23.377Z,1020.04
2016-12-10T05:50:04.140Z,1020.05
2016-12-10T05:50:44.912Z,1020.06
2016-12-10T05:51:25.655Z,1020.11
2016-12-10T05:52:06.446Z,1020.08
2016-12-10T05:52:47.206Z,1020.1
2016-12-10T05:53:27.949Z,1020.09
2016-12-10T05:54:08.712Z,1020.11
2016-12-10T05:54:49.468Z,1020.08
2016-12-10T05:55:30.246Z,1020.09
2016-12-10T05:56:11.031Z,1020.09
2016-12-10T05:56:51.771Z,1020.1
2016-12-10T05:57:32.535Z,1020.09
2016-12-10T05:58:13.302Z,1020.09
2016-12-10T05:58:54.087Z,1020.08
2016-12-10T05:59:34.858Z,1020.09
2016-12-10T06:00:15.632Z,1020.12
2016-12-10T06:00:56.393Z,1020.11
2016-12-10T06:01:37.156Z,1020.1
2016-12-10T06:02:17.915Z,1020.11
2016-12-10T06:02:58.689Z,1020.15
2016-12-10T06:03:39.453Z,1020.11
2016-12-10T06:04:20.202Z,1020.14
2016-12-10T06:05:00.958Z,1020.13
2016-12-10T06:05:41.715Z,1020.11
2016-12-10T06:06:22.490Z,1020.13
2016-12-10T06:07:03.251Z,1020.12
2016-12-10T06:07:44.032Z,1020.12
2016-12-10T06:08:24.780Z,1020.15
2016-12-10T06:09:05.572Z,1020.15
2016-12-10T06:09:46.321Z,1020.14
2016-12-10T06:10:27.087Z,1020.12
2016-12-10T06:11:07.869Z,1020.19
2016-12-10T06:11:48.627Z,1020.15
2016-12-10T06:12:29.409Z,1020.19
2016-12-10T06:13:10.155Z,1020.17
2016-12-10T06:13:50.910Z,1020.18
2016-12-10T06:14:31.679Z,1020.17
2016-12-10T06:15:12.457Z,1020.2
2016-12-10T06:15:53.211Z,1020.2
2016-12-10T06:16:33.964Z,1020.18
2016-12-10T06:17:14.697Z,1020.21
2016-12-10T06:17:55.489Z,1020.17
2016-12-10T06:18:36.232Z,1020.24
2016-12-10T06:19:17.015Z,1020.19
2016-12-10T06:19:57.766Z,1020.19
2016-12-10T06:20:38.506Z,1020.22
2016-12-10T06:21:19.273Z,1020.2
2016-12-10T06:22:00.016Z,1020.2
2016-12-10T06:22:40.784Z,1020.24
2016-12-10T06:23:21.562Z,1020.25
2016-12-10T06:24:02.300Z,1020.25
2016-12-10T06:24:43.074Z,1020.26
2016-12-10T06:25:23.842Z,1020.25
2016-12-10T06:26:04.618Z,1020.25
2016-12-10T06:26:45.362Z,1020.26
2016-12-10T06:27:26.125Z,1020.24
2016-12-10T06:28:06.878Z,1020.25
2016-12-10T06:28:47.648Z,1020.25
2016-12-10T06:29:28.422Z,1020.27
2016-12-10T06:30:09.221Z,1020.22
2016-12-10T06:30:50.010Z,1020.24
2016-12-10T06:31:30.769Z,1020.27
2016-12-10T06:32:11.540Z,1020.24
2016-12-10T06:32:52.321Z,1020.27
2016-12-10T06:33:33.065Z,1020.24
2016-12-10T06:34:13.850Z,1020.27
2016-12-10T06:34:54.585Z,1020.3
2016-12-10T06:35:35.350Z,1020.31
2016-12-10T06:36:16.115Z,1020.29
2016-12-10T06:36:56.884Z,1020.31
2016-12-10T06:37:37.632Z,1020.32
2016-12-10T06:38:18.402Z,1020.32
2016-12-10T06:38:59.151Z,1020.32
2016-12-10T06:39:39.937Z,1020.32
2016-12-10T06:40:20.702Z,1020.32
2016-12-10T06:41:01.486Z,1020.28
2016-12-10T06:41:42.264Z,1020.35
2016-12-10T06:42:23.005Z,1020.33
2016-12-10T06:43:03.757Z,1020.3
2016-12-10T06:43:44.531Z,1020.32
2016-12-10T06:44:25.269Z,1020.36
2016-12-10T06:45:06.023Z,1020.35
2016-12-10T06:45:46.786Z,1020.39
2016-12-10T06:46:27.560Z,1020.37
2016-12-10T06:47:08.308Z,1020.37
2016-12-10T06:47:49.058Z,1020.4
2016-12-10T06:48:29.840Z,1020.38
2016-12-10T06:49:10.581Z,1020.39
2016-12-10T06:49:51.354Z,1020.39
2016-12-10T06:50:32.154Z,1020.38
2016-12-10T06:51:12.904Z,1020.38
2016-12-10T06:51:53.647Z,1020.36
2016-12-10T06:52:34.406Z,1020.37
2016-12-10T06:53:15.174Z,1020.35
2016-12-10T06:53:55.947Z,1020.38
2016-12-10T06:54:36.717Z,1020.39
2016-12-10T06:55:17.450Z,1020.38
2016-12-10T06:55:58.188Z,1020.42
2016-12-10T06:56:38.950Z,1020.42
2016-12-10T06:57:19.711Z,1020.45
2016-12-10T06:58:00.506Z,1020.38
2016-12-10T06:58:41.267Z,1020.42
2016-12-10T06:59:22.020Z,1020.43
2016-12-10T07:00:02.791Z,1020.41
2016-12-10T07:00:43.576Z,1020.43
2016-12-10T07:01:24.334Z,1020.42
2016-12-10T07:02:05.129Z,1020.43
2016-12-10T07:02:45.891Z,1020.42
2016-12-10T07:03:26.679Z,1020.43
2016-12-10T07:04:07.425Z,1020.43
2016-12-10T07:04:48.185Z,1020.48
2016-12-10T07:05:28.933Z,1020.45
2016-12-10T07:06:09.704Z,1020.5
2016-12-10T07:06:50.488Z,1020.46
2016-12-10T07:07:31.235Z,1020.5
2016-12-10T07:08:11.989Z,1020.49
2016-12-10T07:08:52.747Z,1020.49
2016-12-10T07:09:33.521Z,1020.53
2016-12-10T07:10:14.306Z,1020.51
2016-12-10T07:10:55.044Z,1020.51
2016-12-10T07:11:35.807Z,1020.49
2016-12-10T07:12:16.568Z,1020.52
2016-12-10T07:12:57.333Z,1020.51
2016-12-10T07:13:38.121Z,1020.5
2016-12-10T07:14:18.884Z,1020.5
2016-12-10T07:14:59.608Z,1020.55
2016-12-10T07:15:40.371Z,1020.53
2016-12-10T07:16:21.128Z,1020.55
2016-12-10T07:17:01.893Z,1020.57
2016-12-10T07:17:42.688Z,1020.54
2016-12-10T07:18:23.438Z,1020.55
2016-12-10T07:19:04.230Z,1020.56
2016-12-10T07:19:44.979Z,1020.56
2016-12-10T07:20:25.744Z,1020.57
2016-12-10T07:21:06.504Z,1020.57
2016-12-10T07:21:47.264Z,1020.57
2016-12-10T07:22:28.048Z,1020.57
2016-12-10T07:23:08.818Z,1020.56
2016-12-10T07:23:49.566Z,1020.57
2016-12-10T07:24:30.344Z,1020.56
2016-12-10T07:25:11.101Z,1020.58
2016-12-10T07:25:51.873Z,1020.62
2016-12-10T07:26:32.640Z,1020.62
2016-12-10T07:27:13.417Z,1020.62
2016-12-10T07:27:55.927Z,1020.62
2016-12-10T07:28:36.677Z,1020.6
2016-12-10T07:29:17.460Z,1020.62
2016-12-10T07:29:58.238Z,1020.61
2016-12-10T07:30:39.042Z,1020.6
2016-12-10T07:31:19.784Z,1020.58
2016-12-10T07:32:00.556Z,1020.61
2016-12-10T07:32:41.303Z,1020.57
2016-12-10T07:33:22.103Z,1020.59
2016-12-10T07:34:02.889Z,1020.58
2016-12-10T07:34:43.651Z,1020.61
2016-12-10T07:35:24.403Z,1020.58
2016-12-10T07:36:05.158Z,1020.6
2016-12-10T07:36:45.932Z,1020.57
2016-12-10T07:37:26.695Z,1020.61
2016-12-10T07:38:07.465Z,1020.6
2016-12-10T07:38:48.238Z,1020.61
2016-12-10T07:39:28.994Z,1020.6
2016-12-10T07:40:09.768Z,1020.61
2016-12-10T07:40:50.534Z,1020.67
2016-12-10T07:41:31.314Z,1020.64
2016-12-10T07:42:12.044Z,1020.64
2016-12-10T07:42:52.803Z,1020.63
2016-12-10T07:43:33.561Z,1020.65
2016-12-10T07:44:14.338Z,1020.67
2016-12-10T07:44:55.101Z,1020.66
2016-12-10T07:45:35.863Z,1020.65
2016-12-10T07:46:16.600Z,1020.66
2016-12-10T07:46:57.349Z,1020.66
2016-12-10T07:47:38.711Z,1020.65
2016-12-10T07:48:18.873Z,1020.67
2016-12-10T07:48:59.635Z,1020.67
2016-12-10T07:49:40.377Z,1020.66
2016-12-10T07:50:21.133Z,1020.64
2016-12-10T07:51:01.893Z,1020.63
2016-12-10T07:51:42.652Z,1020.66
2016-12-10T07:52:23.395Z,1020.66
2016-12-10T07:53:04.133Z,1020.66
2016-12-10T07:53:44.889Z,1020.67
2016-12-10T07:54:25.645Z,1020.68
2016-12-10T07:55:06.391Z,1020.67
2016-12-10T07:55:47.139Z,1020.69
2016-12-10T07:56:27.897Z,1020.67
2016-12-10T07:57:08.660Z,1020.71
2016-12-10T07:57:49.430Z,1020.68
2016-12-10T07:58:30.198Z,1020.73
2016-12-10T07:59:10.963Z,1020.69
2016-12-10T07:59:51.729Z,1020.72
2016-12-10T08:00:32.523Z,1020.73
2016-12-10T08:01:13.276Z,1020.72
2016-12-10T08:01:54.025Z,1020.71
2016-12-10T08:02:34.791Z,1020.7
2016-12-10T08:03:15.555Z,1020.72
2016-12-10T08:03:56.334Z,1020.75
2016-12-10T08:04:37.097Z,1020.74
2016-12-10T08:05:17.868Z,1020.72
2016-12-10T08:05:58.617Z,1020.74
2016-12-10T08:06:39.379Z,1020.76
2016-12-10T08:07:20.133Z,1020.74
2016-12-10T08:08:00.889Z,1020.7
2016-12-10T08:08:42.522Z,1020.73
2016-12-10T08:09:23.293Z,1020.74
2016-12-10T08:10:04.075Z,1020.77
2016-12-10T08:10:44.828Z,1020.75
2016-12-10T08:11:25.647Z,1020.74
2016-12-10T08:12:06.402Z,1020.72
2016-12-10T08:12:47.162Z,1020.71
2016-12-10T08:13:27.947Z,1020.7
2016-12-10T08:14:08.740Z,1020.75
2016-12-10T08:14:49.479Z,1020.71